EmailTwitter


Observations de surface / Québec / EGVN

Régions: Québec | Canada | États-Unis | Europe | France | UK | Ailleurs
Station
Affichage
Infos & localisation pour EGVN | Aide pour décoder les METARs

Observations prises le 2017-09-21 à 09H50 UTC à BRIZE NORTON RA, UK (EGVN)

Etat du ciel: partiellement nuageux.

Température: 15.0 Celsius

Point de rosée: 12.0 Celsius

Humidité relative: 82%

Vents: Sud à 17 km/h ou 9 noeuds.

Pression au niveau moyen de la mer: 101.30 kilopascals.

Visibilité horizontale: 6.21 milles terrestres ou 9.94 kilomètres.

Hauteur du plafond: 396 mètres ( 1300 pieds ).

Observation METAR:

EGVN 210950Z 18009KT 9999 BKN013 15/12 Q1013 TEMPO 7000 RA=